Time;durP1;ratioP1;P1;durP2;ratioP2;P2;SDS_P1;SDS_P2;PMS_P1;PMS_P2;Temp;Humidity;BMP_temperature;BMP_pressure;BME280_temperature;BME280_humidity;BME280_pressure;Samples;Min_cycle;Max_cycle;Signal;HPM_P1;HPM_P2
2022/12/11 00:03:52;;;;;;;5.80;1.98;;;11.00;69.40;;;;;;21171600;28;20048;-59
2022/12/11 00:13:54;;;;;;;9.30;1.95;;;11.00;69.50;;;;;;21169655;28;20040;-58
2022/12/11 00:23:57;;;;;;;8.07;2.40;;;10.80;69.20;;;;;;21170800;28;20075;-62
2022/12/11 00:34:00;;;;;;;5.30;2.13;;;10.90;68.30;;;;;;21170103;28;20066;-59
2022/12/11 00:44:03;;;;;;;6.65;2.00;;;10.70;69.80;;;;;;21169323;28;20525;-58
2022/12/11 00:54:05;;;;;;;8.50;2.13;;;10.70;70.40;;;;;;21150814;28;20182;-58
2022/12/11 01:04:08;;;;;;;7.72;2.20;;;10.70;71.00;;;;;;21168405;28;20075;-58
2022/12/11 01:14:10;;;;;;;6.75;1.75;;;10.50;70.60;;;;;;21167572;28;20450;-58
2022/12/11 01:24:12;;;;;;;5.70;1.92;;;10.60;70.70;;;;;;21166685;28;20048;-59
2022/12/11 01:34:14;;;;;;;5.25;2.58;;;10.40;72.00;;;;;;21165210;28;20078;-58
2022/12/11 01:44:16;;;;;;;11.13;4.93;;;10.40;73.50;;;;;;21166303;28;20071;-61
2022/12/11 01:54:21;;;;;;;9.50;2.58;;;10.40;75.20;;;;;;21147379;28;20411;-58
2022/12/11 02:04:23;;;;;;;10.18;2.60;;;10.30;75.60;;;;;;21163471;28;20101;-62
2022/12/11 02:14:51;;;;;;;8.50;2.20;;;10.30;75.70;;;;;;21164222;28;20077;-57
2022/12/11 02:25:31;;;;;;;5.70;3.03;;;10.30;76.50;;;;;;21162302;28;20085;-58
2022/12/11 02:35:41;;;;;;;5.85;2.22;;;10.20;76.70;;;;;;20819905;28;20532;-58
2022/12/11 02:45:47;;;;;;;7.55;2.53;;;10.20;75.80;;;;;;20820205;28;20053;-58
2022/12/11 02:56:25;;;;;;;5.30;2.03;;;10.10;76.20;;;;;;20819595;28;20057;-57
2022/12/11 03:06:38;;;;;;;7.72;2.45;;;10.20;76.00;;;;;;20669081;28;20049;-58
2022/12/11 03:16:57;;;;;;;6.35;2.13;;;10.10;77.00;;;;;;20737678;28;20054;-57
2022/12/11 03:27:17;;;;;;;8.45;2.28;;;10.00;77.40;;;;;;20736578;28;20096;-57
2022/12/11 03:37:27;;;;;;;5.55;2.33;;;9.90;77.80;;;;;;20837026;28;20433;-57
2022/12/11 03:47:33;;;;;;;4.13;2.00;;;9.80;78.40;;;;;;21090389;28;20051;-58
2022/12/11 03:57:37;;;;;;;6.80;1.95;;;9.80;78.40;;;;;;21142227;28;20482;-57
2022/12/11 04:07:39;;;;;;;4.68;1.88;;;9.80;78.30;;;;;;21173053;28;20086;-58
2022/12/11 04:28:04;;;;;;;3.55;1.63;;;9.60;78.80;;;;;;21170320;28;20525;-57
2022/12/11 04:38:07;;;;;;;4.07;2.50;;;9.60;79.10;;;;;;21169711;28;20051;-57
2022/12/11 04:48:28;;;;;;;6.85;2.28;;;9.60;79.20;;;;;;21168639;28;20090;-57
2022/12/11 04:58:30;;;;;;;4.90;2.30;;;9.60;79.90;;;;;;21167890;28;20120;-58
2022/12/11 05:08:34;;;;;;;8.07;3.50;;;9.60;80.00;;;;;;21167508;28;20048;-57
2022/12/11 05:18:37;;;;;;;4.72;2.40;;;9.50;80.50;;;;;;21166941;28;20108;-57
2022/12/11 05:28:40;;;;;;;7.20;2.90;;;9.50;80.40;;;;;;21165595;28;20051;-57
2022/12/11 05:38:44;;;;;;;6.83;2.97;;;9.50;80.80;;;;;;21165304;28;20052;-57
2022/12/11 05:48:49;;;;;;;8.32;4.32;;;9.50;80.90;;;;;;21166215;28;20048;-57
2022/12/11 05:58:54;;;;;;;11.15;5.20;;;9.40;80.90;;;;;;21162567;28;20051;-57
2022/12/11 06:08:59;;;;;;;12.35;7.32;;;9.40;81.00;;;;;;21164393;28;20166;-57
2022/12/11 06:19:03;;;;;;;7.15;5.25;;;9.40;80.80;;;;;;21163617;28;20135;-57
2022/12/11 06:29:09;;;;;;;6.85;3.80;;;9.40;80.80;;;;;;21162163;28;20086;-58
2022/12/11 06:39:14;;;;;;;7.60;4.47;;;9.30;80.80;;;;;;21162619;28;20139;-58
2022/12/11 06:49:19;;;;;;;8.60;4.40;;;9.30;81.10;;;;;;21161747;28;20054;-57
2022/12/11 06:59:22;;;;;;;8.70;3.58;;;9.40;81.00;;;;;;21161479;28;20553;-58
2022/12/11 07:09:25;;;;;;;6.10;3.05;;;9.30;81.20;;;;;;21171583;28;20517;-57
2022/12/11 07:19:27;;;;;;;6.38;3.67;;;9.30;81.30;;;;;;21176437;28;20140;-57
2022/12/11 07:29:30;;;;;;;6.22;3.83;;;9.30;81.20;;;;;;21175301;28;20048;-57
2022/12/11 07:39:32;;;;;;;8.02;4.10;;;9.30;81.40;;;;;;21174406;28;20105;-62
2022/12/11 07:49:34;;;;;;;5.95;3.75;;;9.30;81.70;;;;;;21173798;28;20039;-58
2022/12/11 07:59:36;;;;;;;5.97;2.38;;;9.30;81.80;;;;;;21172718;28;20048;-60
2022/12/11 08:09:38;;;;;;;6.78;3.42;;;9.20;81.70;;;;;;21173128;28;20043;-57
2022/12/11 08:19:40;;;;;;;5.97;2.90;;;9.20;81.90;;;;;;21170839;28;20086;-58
2022/12/11 08:29:43;;;;;;;3.67;2.85;;;9.20;80.90;;;;;;21170958;28;20055;-58
2022/12/11 08:39:45;;;;;;;4.05;2.88;;;9.10;81.70;;;;;;21151623;28;20051;-57
2022/12/11 08:49:48;;;;;;;4.63;2.53;;;9.20;82.00;;;;;;21170204;28;20484;-58
2022/12/11 08:59:50;;;;;;;2.72;2.08;;;9.10;81.30;;;;;;21168644;28;20255;-58
2022/12/11 09:09:55;;;;;;;2.00;1.20;;;9.20;81.20;;;;;;21167333;28;20055;-59
2022/12/11 09:19:57;;;;;;;2.60;1.97;;;9.30;80.40;;;;;;21167172;28;20051;-58
2022/12/11 09:29:59;;;;;;;1.88;1.10;;;9.20;81.10;;;;;;21166227;28;20039;-60
2022/12/11 09:40:00;;;;;;;1.40;1.00;;;9.10;79.20;;;;;;21039778;28;20506;-61
2022/12/11 09:50:03;;;;;;;2.28;0.88;;;8.90;80.10;;;;;;21106740;28;20066;-61
2022/12/11 10:00:08;;;;;;;2.22;1.25;;;8.90;79.70;;;;;;21157207;27;20095;-60
2022/12/11 10:10:49;;;;;;;2.83;1.88;;;8.80;81.30;;;;;;21221305;27;20483;-57
2022/12/11 10:20:52;;;;;;;2.15;1.15;;;10.90;83.30;;;;;;20815210;28;20049;-63
2022/12/11 10:31:01;;;;;;;3.00;1.98;;;10.00;76.80;;;;;;20735043;28;20045;-61
2022/12/11 10:41:11;;;;;;;1.30;0.90;;;9.50;79.40;;;;;;20741731;28;20046;-57
2022/12/11 10:51:14;;;;;;;2.20;1.20;;;9.40;77.30;;;;;;20921489;27;20413;-58
2022/12/11 11:01:21;;;;;;;1.98;1.27;;;9.20;78.90;;;;;;21174005;28;20059;-60
2022/12/11 11:11:35;;;;;;;3.80;3.10;;;9.30;79.80;;;;;;21166630;27;20071;-64
2022/12/11 11:21:49;;;;;;;2.92;1.17;;;10.90;81.50;;;;;;21231107;27;20079;-61
2022/12/11 11:31:51;;;;;;;2.00;1.52;;;10.10;75.50;;;;;;21219545;27;20047;-60
2022/12/11 11:42:06;;;;;;;2.65;1.67;;;9.80;76.30;;;;;;21174643;27;20410;-59
2022/12/11 11:52:16;;;;;;;2.00;1.55;;;9.90;77.00;;;;;;21152510;27;20043;-63
2022/12/11 12:02:18;;;;;;;3.88;1.80;;;10.00;76.30;;;;;;21192972;27;20043;-62
2022/12/11 12:12:34;;;;;;;3.78;2.42;;;9.80;76.30;;;;;;21181293;27;20116;-65
2022/12/11 12:22:55;;;;;;;;;;;9.90;76.90;;;;;;21170111;28;20496;-64
2022/12/11 12:33:18;;;;;;;5.43;2.10;;;10.70;75.20;;;;;;21169769;27;19919;-62
2022/12/11 12:43:32;;;;;;;4.05;2.15;;;10.50;74.90;;;;;;21169528;27;20376;-62
2022/12/11 12:53:36;;;;;;;7.03;3.20;;;10.40;75.10;;;;;;21165695;28;20039;-64
2022/12/11 13:03:55;;;;;;;2.67;2.45;;;10.30;75.80;;;;;;21179893;27;20440;-62
2022/12/11 13:14:19;;;;;;;4.22;3.75;;;10.40;74.70;;;;;;21164558;28;20475;-56
2022/12/11 13:24:21;;;;;;;4.33;3.80;;;10.60;74.00;;;;;;21154090;27;20411;-58
2022/12/11 13:34:29;;;;;;;5.55;3.75;;;10.80;74.00;;;;;;21174535;27;20116;-58
2022/12/11 13:44:38;;;;;;;4.00;2.45;;;11.60;80.40;;;;;;21162318;28;20047;-63
2022/12/11 13:54:50;;;;;;;5.93;4.20;;;12.60;68.30;;;;;;21162423;28;20052;-59
2022/12/11 14:04:57;;;;;;;5.93;4.43;;;12.00;72.00;;;;;;21163135;28;20059;-59
2022/12/11 14:15:02;;;;;;;8.68;7.20;;;11.20;72.50;;;;;;21162090;28;20051;-59
2022/12/11 14:25:21;;;;;;;5.45;4.85;;;11.00;74.20;;;;;;21161176;28;20051;-58
2022/12/11 14:35:31;;;;;;;5.45;4.93;;;11.00;73.50;;;;;;21160674;28;20048;-59
2022/12/11 14:45:39;;;;;;;5.88;4.85;;;10.80;74.80;;;;;;21160767;28;20048;-60
2022/12/11 14:55:42;;;;;;;5.40;4.90;;;10.90;75.30;;;;;;21160799;28;20073;-59
2022/12/11 15:05:52;;;;;;;6.10;5.50;;;11.00;75.30;;;;;;21161171;28;20061;-58
2022/12/11 15:15:55;;;;;;;7.13;5.97;;;11.00;75.30;;;;;;21160467;28;20108;-60
2022/12/11 15:26:00;;;;;;;9.35;6.97;;;11.00;75.40;;;;;;21162452;28;20043;-58
2022/12/11 15:36:05;;;;;;;10.27;8.38;;;11.00;75.70;;;;;;21173960;28;20047;-60
2022/12/11 15:46:07;;;;;;;9.10;8.02;;;11.00;76.60;;;;;;21174315;28;20472;-59
2022/12/11 15:56:13;;;;;;;10.48;7.85;;;11.00;76.20;;;;;;21173829;28;20059;-59
2022/12/11 16:06:16;;;;;;;10.88;9.38;;;11.00;76.50;;;;;;21172975;28;20134;-60
2022/12/11 16:16:18;;;;;;;11.02;9.45;;;11.00;76.60;;;;;;21173359;28;20047;-58
2022/12/11 16:26:20;;;;;;;10.95;8.20;;;11.10;76.90;;;;;;21172599;28;20043;-62
2022/12/11 16:36:22;;;;;;;8.77;7.40;;;11.10;76.70;;;;;;21170342;28;20104;-59
2022/12/11 16:46:24;;;;;;;10.10;7.63;;;11.10;77.20;;;;;;21170342;28;20044;-62
2022/12/11 16:56:25;;;;;;;9.20;7.93;;;11.00;77.30;;;;;;21168952;28;20491;-60
2022/12/11 17:06:28;;;;;;;9.70;7.65;;;11.00;77.70;;;;;;21169324;28;20047;-59
2022/12/11 17:16:30;;;;;;;9.70;7.30;;;11.00;78.00;;;;;;21167506;28;20048;-59
2022/12/11 17:26:31;;;;;;;48.88;33.38;;;11.00;78.20;;;;;;21165622;28;20135;-59
2022/12/11 17:36:33;;;;;;;9.77;6.57;;;11.00;78.50;;;;;;21165910;28;20414;-59
2022/12/11 17:46:35;;;;;;;9.32;7.18;;;11.00;79.20;;;;;;21165453;28;20055;-59
2022/12/11 17:56:37;;;;;;;9.82;6.75;;;11.00;79.80;;;;;;21163954;28;20056;-60
2022/12/11 18:06:43;;;;;;;8.93;7.07;;;11.00;80.00;;;;;;21146529;28;20048;-59
2022/12/11 18:16:45;;;;;;;6.28;5.45;;;11.00;80.20;;;;;;21162834;28;20051;-59
2022/12/11 18:26:47;;;;;;;5.55;4.72;;;11.00;81.00;;;;;;21162353;28;20048;-60
2022/12/11 18:36:49;;;;;;;5.03;4.53;;;11.00;81.20;;;;;;21163332;28;20475;-59
2022/12/11 18:46:52;;;;;;;4.72;3.78;;;11.10;81.60;;;;;;21163370;28;20058;-59
2022/12/11 18:56:53;;;;;;;3.90;3.60;;;10.90;81.90;;;;;;21161526;28;20491;-60
2022/12/11 19:06:55;;;;;;;4.75;3.72;;;11.00;81.90;;;;;;21174404;28;20511;-59
2022/12/11 19:16:57;;;;;;;4.40;2.97;;;11.00;82.10;;;;;;21177247;28;20491;-60
2022/12/11 19:27:01;;;;;;;3.05;2.30;;;11.10;81.90;;;;;;21176279;28;20407;-59
2022/12/11 19:37:03;;;;;;;3.13;2.40;;;11.00;82.10;;;;;;21175829;28;20085;-60
2022/12/11 19:47:05;;;;;;;4.28;2.92;;;10.90;82.50;;;;;;21174405;28;20050;-58
2022/12/11 19:57:07;;;;;;;5.03;2.97;;;10.90;82.40;;;;;;21173931;28;20056;-61
2022/12/11 20:07:08;;;;;;;5.60;3.53;;;10.90;82.40;;;;;;21173807;28;20054;-60
2022/12/11 20:17:11;;;;;;;7.07;5.18;;;11.00;82.30;;;;;;21170546;28;20055;-59
2022/12/11 20:27:13;;;;;;;7.68;3.80;;;11.00;82.20;;;;;;21172564;28;20051;-59
2022/12/11 20:37:17;;;;;;;6.10;3.60;;;11.00;82.30;;;;;;21170545;28;20054;-60
2022/12/11 20:47:20;;;;;;;4.75;3.58;;;11.00;82.20;;;;;;21170075;28;20105;-60
2022/12/11 20:57:23;;;;;;;5.35;3.45;;;11.00;82.20;;;;;;21169701;28;20147;-59
2022/12/11 21:07:27;;;;;;;11.15;6.78;;;11.00;82.20;;;;;;21151006;28;20048;-60
2022/12/11 21:17:29;;;;;;;5.82;4.40;;;11.10;82.10;;;;;;21167664;28;20047;-61
2022/12/11 21:27:31;;;;;;;6.57;5.10;;;11.10;82.00;;;;;;21166595;28;20039;-60
2022/12/11 21:37:33;;;;;;;5.45;4.57;;;11.20;82.00;;;;;;21166059;28;20139;-59
2022/12/11 21:47:36;;;;;;;7.85;6.13;;;11.20;82.00;;;;;;21165762;28;20175;-60
2022/12/11 21:57:38;;;;;;;10.02;5.05;;;11.10;82.10;;;;;;21164030;28;20102;-62
2022/12/11 22:07:40;;;;;;;6.20;4.40;;;11.20;82.10;;;;;;21164099;28;20479;-62
2022/12/11 22:17:43;;;;;;;4.85;3.75;;;11.20;82.00;;;;;;21163488;28;20062;-60
2022/12/11 22:27:45;;;;;;;4.78;2.70;;;11.30;81.70;;;;;;21163465;28;20127;-62
2022/12/11 22:37:47;;;;;;;5.30;3.10;;;11.30;81.80;;;;;;21170624;28;20453;-60
2022/12/11 22:47:50;;;;;;;4.38;3.20;;;11.30;82.00;;;;;;21179091;28;20040;-60
2022/12/11 22:57:51;;;;;;;3.25;2.67;;;11.30;82.20;;;;;;21178701;28;20052;-60
2022/12/11 23:07:52;;;;;;;6.63;4.40;;;11.40;82.00;;;;;;21178873;28;20039;-60
2022/12/11 23:17:55;;;;;;;3.92;3.17;;;11.30;81.90;;;;;;21177601;28;20043;-61
2022/12/11 23:27:58;;;;;;;4.63;3.55;;;11.20;82.20;;;;;;21177275;28;20495;-61
2022/12/11 23:38:00;;;;;;;6.05;3.25;;;11.30;82.50;;;;;;21176592;28;20154;-59
2022/12/11 23:48:02;;;;;;;5.43;3.65;;;11.40;82.50;;;;;;21175220;28;20050;-60
2022/12/11 23:58:05;;;;;;;6.72;4.13;;;11.40;82.60;;;;;;21174221;28;20059;-60
